sensor_id;sensor_type;location;lat;lon;timestamp;pressure;altitude;pressure_sealevel;temperature;humidity
62057;BME280;48016;50.284;18.860;2023-04-25T00:01:49;97085.83;;;11.02;79.40
62057;BME280;48016;50.284;18.860;2023-04-25T00:04:15;97083.77;;;11.01;79.40
62057;BME280;48016;50.284;18.860;2023-04-25T00:06:42;97086.17;;;11.00;79.45
62057;BME280;48016;50.284;18.860;2023-04-25T00:09:08;97086.98;;;11.00;79.77
62057;BME280;48016;50.284;18.860;2023-04-25T00:11:36;97089.56;;;11.01;79.78
62057;BME280;48016;50.284;18.860;2023-04-25T00:14:04;97087.20;;;11.00;79.98
62057;BME280;48016;50.284;18.860;2023-04-25T00:16:30;97086.91;;;11.01;79.74
62057;BME280;48016;50.284;18.860;2023-04-25T00:19:03;97086.96;;;11.02;79.90
62057;BME280;48016;50.284;18.860;2023-04-25T00:21:30;97084.14;;;11.02;79.92
62057;BME280;48016;50.284;18.860;2023-04-25T00:23:58;97083.50;;;11.02;79.97
62057;BME280;48016;50.284;18.860;2023-04-25T00:26:24;97082.48;;;11.02;80.32
62057;BME280;48016;50.284;18.860;2023-04-25T00:28:51;97083.36;;;11.00;80.26
62057;BME280;48016;50.284;18.860;2023-04-25T00:31:18;97081.00;;;10.99;80.48
62057;BME280;48016;50.284;18.860;2023-04-25T00:33:44;97081.80;;;10.99;80.48
62057;BME280;48016;50.284;18.860;2023-04-25T00:36:11;97081.98;;;10.98;80.25
62057;BME280;48016;50.284;18.860;2023-04-25T00:38:38;97079.10;;;10.94;80.05
62057;BME280;48016;50.284;18.860;2023-04-25T00:41:07;97082.28;;;10.90;80.35
62057;BME280;48016;50.284;18.860;2023-04-25T00:43:33;97079.63;;;10.89;80.29
62057;BME280;48016;50.284;18.860;2023-04-25T00:46:00;97084.30;;;10.87;80.34
62057;BME280;48016;50.284;18.860;2023-04-25T00:48:27;97086.44;;;10.85;80.44
62057;BME280;48016;50.284;18.860;2023-04-25T00:50:57;97086.94;;;10.83;80.31
62057;BME280;48016;50.284;18.860;2023-04-25T00:53:26;97092.80;;;10.82;80.34
62057;BME280;48016;50.284;18.860;2023-04-25T00:55:53;97090.70;;;10.80;80.11
62057;BME280;48016;50.284;18.860;2023-04-25T00:58:21;97090.33;;;10.80;80.02
62057;BME280;48016;50.284;18.860;2023-04-25T01:00:49;97091.77;;;10.77;80.08
62057;BME280;48016;50.284;18.860;2023-04-25T01:03:17;97094.05;;;10.74;80.05
62057;BME280;48016;50.284;18.860;2023-04-25T01:05:46;97094.19;;;10.73;79.91
62057;BME280;48016;50.284;18.860;2023-04-25T01:08:14;97094.92;;;10.69;79.64
62057;BME280;48016;50.284;18.860;2023-04-25T01:10:40;97096.27;;;10.64;79.69
62057;BME280;48016;50.284;18.860;2023-04-25T01:13:07;97095.75;;;10.61;79.95
62057;BME280;48016;50.284;18.860;2023-04-25T01:15:34;97097.73;;;10.56;79.80
62057;BME280;48016;50.284;18.860;2023-04-25T01:18:05;97099.34;;;10.53;79.57
62057;BME280;48016;50.284;18.860;2023-04-25T01:20:33;97098.30;;;10.48;79.77
62057;BME280;48016;50.284;18.860;2023-04-25T01:23:00;97099.96;;;10.44;79.62
62057;BME280;48016;50.284;18.860;2023-04-25T01:25:30;97101.22;;;10.40;79.40
62057;BME280;48016;50.284;18.860;2023-04-25T01:27:57;97101.73;;;10.37;79.53
62057;BME280;48016;50.284;18.860;2023-04-25T01:30:26;97102.67;;;10.35;79.49
62057;BME280;48016;50.284;18.860;2023-04-25T01:32:56;97104.80;;;10.33;79.30
62057;BME280;48016;50.284;18.860;2023-04-25T01:35:24;97109.36;;;10.29;79.36
62057;BME280;48016;50.284;18.860;2023-04-25T01:37:51;97110.02;;;10.27;79.25
62057;BME280;48016;50.284;18.860;2023-04-25T01:40:18;97109.34;;;10.21;79.04
62057;BME280;48016;50.284;18.860;2023-04-25T01:42:45;97112.13;;;10.17;78.78
62057;BME280;48016;50.284;18.860;2023-04-25T01:45:12;97113.45;;;10.13;78.33
62057;BME280;48016;50.284;18.860;2023-04-25T01:47:39;97113.86;;;10.08;78.16
62057;BME280;48016;50.284;18.860;2023-04-25T01:50:07;97117.52;;;10.02;77.95
62057;BME280;48016;50.284;18.860;2023-04-25T01:52:34;97119.08;;;9.96;77.74
62057;BME280;48016;50.284;18.860;2023-04-25T01:55:02;97118.45;;;9.90;77.51
62057;BME280;48016;50.284;18.860;2023-04-25T01:57:28;97121.61;;;9.85;77.52
62057;BME280;48016;50.284;18.860;2023-04-25T01:59:59;97119.22;;;9.80;77.45
62057;BME280;48016;50.284;18.860;2023-04-25T02:02:27;97123.92;;;9.76;77.32
62057;BME280;48016;50.284;18.860;2023-04-25T02:04:53;97123.10;;;9.71;77.37
62057;BME280;48016;50.284;18.860;2023-04-25T02:07:20;97125.20;;;9.68;77.28
62057;BME280;48016;50.284;18.860;2023-04-25T02:09:47;97121.73;;;9.64;77.30
62057;BME280;48016;50.284;18.860;2023-04-25T02:12:14;97127.73;;;9.61;77.40
62057;BME280;48016;50.284;18.860;2023-04-25T02:14:40;97127.15;;;9.60;77.38
62057;BME280;48016;50.284;18.860;2023-04-25T02:17:07;97131.30;;;9.56;77.47
62057;BME280;48016;50.284;18.860;2023-04-25T02:19:33;97132.35;;;9.55;77.55
62057;BME280;48016;50.284;18.860;2023-04-25T02:22:00;97133.17;;;9.52;77.80
62057;BME280;48016;50.284;18.860;2023-04-25T02:24:27;97129.66;;;9.50;77.88
62057;BME280;48016;50.284;18.860;2023-04-25T02:26:54;97134.20;;;9.49;77.98
62057;BME280;48016;50.284;18.860;2023-04-25T02:29:22;97134.15;;;9.49;77.96
62057;BME280;48016;50.284;18.860;2023-04-25T02:31:49;97130.70;;;9.48;78.14
62057;BME280;48016;50.284;18.860;2023-04-25T02:34:16;97127.20;;;9.47;78.22
62057;BME280;48016;50.284;18.860;2023-04-25T02:36:42;97128.13;;;9.45;78.14
62057;BME280;48016;50.284;18.860;2023-04-25T02:39:09;97127.69;;;9.42;78.16
62057;BME280;48016;50.284;18.860;2023-04-25T02:41:36;97129.27;;;9.41;78.11
62057;BME280;48016;50.284;18.860;2023-04-25T02:44:03;97131.01;;;9.39;78.20
62057;BME280;48016;50.284;18.860;2023-04-25T02:46:29;97132.62;;;9.38;78.17
62057;BME280;48016;50.284;18.860;2023-04-25T02:48:56;97135.70;;;9.37;77.89
62057;BME280;48016;50.284;18.860;2023-04-25T02:51:23;97138.61;;;9.35;77.92
62057;BME280;48016;50.284;18.860;2023-04-25T02:53:49;97133.77;;;9.34;77.89
62057;BME280;48016;50.284;18.860;2023-04-25T02:56:16;97133.02;;;9.34;77.68
62057;BME280;48016;50.284;18.860;2023-04-25T02:58:42;97129.63;;;9.31;77.65
62057;BME280;48016;50.284;18.860;2023-04-25T03:01:09;97130.51;;;9.31;77.49
62057;BME280;48016;50.284;18.860;2023-04-25T03:03:36;97124.62;;;9.29;77.40
62057;BME280;48016;50.284;18.860;2023-04-25T03:06:02;97123.27;;;9.28;77.40
62057;BME280;48016;50.284;18.860;2023-04-25T03:08:29;97126.67;;;9.27;77.19
62057;BME280;48016;50.284;18.860;2023-04-25T03:10:58;97122.96;;;9.25;77.05
62057;BME280;48016;50.284;18.860;2023-04-25T03:13:25;97123.89;;;9.22;76.95
62057;BME280;48016;50.284;18.860;2023-04-25T03:15:52;97122.92;;;9.22;77.00
62057;BME280;48016;50.284;18.860;2023-04-25T03:18:18;97126.59;;;9.21;76.84
62057;BME280;48016;50.284;18.860;2023-04-25T03:20:45;97127.02;;;9.20;76.74
62057;BME280;48016;50.284;18.860;2023-04-25T03:23:12;97126.55;;;9.18;76.73
62057;BME280;48016;50.284;18.860;2023-04-25T03:25:39;97128.59;;;9.17;76.56
62057;BME280;48016;50.284;18.860;2023-04-25T03:28:06;97126.65;;;9.16;76.55
62057;BME280;48016;50.284;18.860;2023-04-25T03:30:33;97132.01;;;9.15;76.45
62057;BME280;48016;50.284;18.860;2023-04-25T03:32:59;97137.19;;;9.14;76.36
62057;BME280;48016;50.284;18.860;2023-04-25T03:35:26;97138.75;;;9.13;76.25
62057;BME280;48016;50.284;18.860;2023-04-25T03:37:53;97143.77;;;9.10;76.12
62057;BME280;48016;50.284;18.860;2023-04-25T03:40:19;97140.11;;;9.06;76.06
62057;BME280;48016;50.284;18.860;2023-04-25T03:42:46;97142.81;;;9.03;75.97
62057;BME280;48016;50.284;18.860;2023-04-25T03:45:12;97144.54;;;9.01;75.92
62057;BME280;48016;50.284;18.860;2023-04-25T03:47:39;97141.80;;;8.99;75.79
62057;BME280;48016;50.284;18.860;2023-04-25T03:50:06;97140.56;;;8.94;75.45
62057;BME280;48016;50.284;18.860;2023-04-25T03:52:32;97144.56;;;8.91;75.51
62057;BME280;48016;50.284;18.860;2023-04-25T03:54:59;97141.71;;;8.90;75.50
62057;BME280;48016;50.284;18.860;2023-04-25T03:57:26;97146.23;;;8.88;75.27
62057;BME280;48016;50.284;18.860;2023-04-25T03:59:52;97148.56;;;8.87;75.14
62057;BME280;48016;50.284;18.860;2023-04-25T04:02:19;97150.12;;;8.85;75.17
62057;BME280;48016;50.284;18.860;2023-04-25T04:04:45;97148.55;;;8.85;75.12
62057;BME280;48016;50.284;18.860;2023-04-25T04:07:12;97150.88;;;8.85;74.88
62057;BME280;48016;50.284;18.860;2023-04-25T04:22:39;97160.76;;;9.45;73.42
62057;BME280;48016;50.284;18.860;2023-04-25T04:25:06;97169.85;;;9.39;73.30
62057;BME280;48016;50.284;18.860;2023-04-25T04:27:32;97169.11;;;9.29;73.32
62057;BME280;48016;50.284;18.860;2023-04-25T04:29:59;97168.60;;;9.22;73.26
62057;BME280;48016;50.284;18.860;2023-04-25T04:32:26;97171.48;;;9.14;73.08
62057;BME280;48016;50.284;18.860;2023-04-25T04:34:56;97172.69;;;9.07;73.21
62057;BME280;48016;50.284;18.860;2023-04-25T04:37:23;97172.74;;;9.03;73.11
62057;BME280;48016;50.284;18.860;2023-04-25T04:39:50;97173.39;;;9.00;73.12
62057;BME280;48016;50.284;18.860;2023-04-25T04:42:18;97172.64;;;8.98;73.11
62057;BME280;48016;50.284;18.860;2023-04-25T04:44:45;97168.97;;;8.98;73.18
62057;BME280;48016;50.284;18.860;2023-04-25T04:53:07;97172.95;;;8.99;72.84
62057;BME280;48016;50.284;18.860;2023-04-25T04:55:34;97173.17;;;9.01;72.61
62057;BME280;48016;50.284;18.860;2023-04-25T04:58:00;97177.15;;;9.03;72.59
62057;BME280;48016;50.284;18.860;2023-04-25T05:00:27;97177.53;;;9.04;72.47
62057;BME280;48016;50.284;18.860;2023-04-25T05:02:56;97172.14;;;9.06;72.28
62057;BME280;48016;50.284;18.860;2023-04-25T05:05:22;97171.54;;;9.08;72.26
62057;BME280;48016;50.284;18.860;2023-04-25T05:07:49;97171.38;;;9.10;72.23
62057;BME280;48016;50.284;18.860;2023-04-25T05:10:17;97167.00;;;9.12;71.81
62057;BME280;48016;50.284;18.860;2023-04-25T05:12:44;97170.35;;;9.12;71.63
62057;BME280;48016;50.284;18.860;2023-04-25T05:15:11;97169.92;;;9.12;71.45
62057;BME280;48016;50.284;18.860;2023-04-25T05:17:38;97170.73;;;9.13;71.47
62057;BME280;48016;50.284;18.860;2023-04-25T05:20:09;97172.23;;;9.15;71.32
62057;BME280;48016;50.284;18.860;2023-04-25T05:22:35;97175.80;;;9.15;71.13
62057;BME280;48016;50.284;18.860;2023-04-25T05:25:02;97174.76;;;9.18;71.34
62057;BME280;48016;50.284;18.860;2023-04-25T05:27:29;97178.10;;;9.23;71.29
62057;BME280;48016;50.284;18.860;2023-04-25T05:29:56;97176.42;;;9.26;71.27
62057;BME280;48016;50.284;18.860;2023-04-25T05:32:23;97177.54;;;9.30;71.03
62057;BME280;48016;50.284;18.860;2023-04-25T05:34:51;97182.02;;;9.31;70.96
62057;BME280;48016;50.284;18.860;2023-04-25T05:37:18;97179.73;;;9.34;70.84
62057;BME280;48016;50.284;18.860;2023-04-25T05:39:44;97184.96;;;9.36;70.65
62057;BME280;48016;50.284;18.860;2023-04-25T05:42:11;97183.71;;;9.37;70.53
62057;BME280;48016;50.284;18.860;2023-04-25T05:44:38;97187.00;;;9.38;70.30
62057;BME280;48016;50.284;18.860;2023-04-25T05:47:05;97184.05;;;9.39;70.34
62057;BME280;48016;50.284;18.860;2023-04-25T05:49:31;97183.05;;;9.43;70.35
62057;BME280;48016;50.284;18.860;2023-04-25T05:51:58;97184.98;;;9.45;70.11
62057;BME280;48016;50.284;18.860;2023-04-25T05:54:25;97184.39;;;9.48;70.06
62057;BME280;48016;50.284;18.860;2023-04-25T05:56:51;97187.46;;;9.49;69.97
62057;BME280;48016;50.284;18.860;2023-04-25T05:59:18;97188.41;;;9.52;70.28
62057;BME280;48016;50.284;18.860;2023-04-25T06:01:44;97189.66;;;9.55;70.01
62057;BME280;48016;50.284;18.860;2023-04-25T06:04:11;97185.39;;;9.57;69.84
62057;BME280;48016;50.284;18.860;2023-04-25T06:06:38;97190.23;;;9.60;69.86
62057;BME280;48016;50.284;18.860;2023-04-25T06:09:05;97191.52;;;9.62;69.61
62057;BME280;48016;50.284;18.860;2023-04-25T06:11:32;97197.28;;;9.63;69.43
62057;BME280;48016;50.284;18.860;2023-04-25T06:13:58;97196.00;;;9.64;69.17
62057;BME280;48016;50.284;18.860;2023-04-25T06:16:25;97197.23;;;9.65;69.11
62057;BME280;48016;50.284;18.860;2023-04-25T06:18:52;97194.85;;;9.66;68.90
62057;BME280;48016;50.284;18.860;2023-04-25T06:21:19;97197.11;;;9.66;68.77
62057;BME280;48016;50.284;18.860;2023-04-25T06:23:45;97193.33;;;9.67;68.52
62057;BME280;48016;50.284;18.860;2023-04-25T06:26:12;97195.88;;;9.63;68.34
62057;BME280;48016;50.284;18.860;2023-04-25T06:28:39;97194.77;;;9.64;68.33
62057;BME280;48016;50.284;18.860;2023-04-25T06:31:05;97193.59;;;9.69;68.38
62057;BME280;48016;50.284;18.860;2023-04-25T06:33:32;97195.20;;;9.75;68.38
62057;BME280;48016;50.284;18.860;2023-04-25T06:35:59;97192.66;;;9.84;68.28
62057;BME280;48016;50.284;18.860;2023-04-25T06:38:25;97197.10;;;9.93;68.09
62057;BME280;48016;50.284;18.860;2023-04-25T06:40:52;97195.73;;;9.99;67.93
62057;BME280;48016;50.284;18.860;2023-04-25T06:43:19;97196.34;;;10.07;67.77
62057;BME280;48016;50.284;18.860;2023-04-25T06:45:45;97195.05;;;10.16;67.69
62057;BME280;48016;50.284;18.860;2023-04-25T06:48:12;97197.49;;;10.22;67.53
62057;BME280;48016;50.284;18.860;2023-04-25T06:50:38;97201.48;;;10.25;67.05
62057;BME280;48016;50.284;18.860;2023-04-25T06:53:05;97197.10;;;10.28;66.85
62057;BME280;48016;50.284;18.860;2023-04-25T06:55:32;97192.71;;;10.32;66.61
62057;BME280;48016;50.284;18.860;2023-04-25T06:57:59;97194.23;;;10.37;66.54
62057;BME280;48016;50.284;18.860;2023-04-25T07:00:26;97194.16;;;10.41;66.34
62057;BME280;48016;50.284;18.860;2023-04-25T07:02:54;97190.16;;;10.43;66.14
62057;BME280;48016;50.284;18.860;2023-04-25T07:05:21;97192.50;;;10.47;65.75
62057;BME280;48016;50.284;18.860;2023-04-25T07:07:48;97189.61;;;10.51;65.78
62057;BME280;48016;50.284;18.860;2023-04-25T07:10:14;97192.39;;;10.55;65.77
62057;BME280;48016;50.284;18.860;2023-04-25T07:12:41;97192.26;;;10.60;65.47
62057;BME280;48016;50.284;18.860;2023-04-25T07:15:08;97192.21;;;10.64;65.52
62057;BME280;48016;50.284;18.860;2023-04-25T07:17:36;97192.15;;;10.72;65.41
62057;BME280;48016;50.284;18.860;2023-04-25T07:20:03;97193.67;;;10.78;65.21
62057;BME280;48016;50.284;18.860;2023-04-25T07:22:32;97194.27;;;10.84;64.79
62057;BME280;48016;50.284;18.860;2023-04-25T07:24:58;97194.86;;;10.91;64.61
62057;BME280;48016;50.284;18.860;2023-04-25T07:27:25;97194.11;;;10.97;64.42
62057;BME280;48016;50.284;18.860;2023-04-25T07:29:52;97194.48;;;11.02;63.99
62057;BME280;48016;50.284;18.860;2023-04-25T07:32:19;97194.44;;;11.07;63.58
62057;BME280;48016;50.284;18.860;2023-04-25T07:34:46;97198.05;;;11.09;63.22
62057;BME280;48016;50.284;18.860;2023-04-25T07:37:13;97196.00;;;11.09;63.34
62057;BME280;48016;50.284;18.860;2023-04-25T07:39:40;97198.80;;;11.04;63.02
62057;BME280;48016;50.284;18.860;2023-04-25T07:42:07;97198.87;;;10.97;62.87
62057;BME280;48016;50.284;18.860;2023-04-25T07:44:34;97200.84;;;11.00;62.53
62057;BME280;48016;50.284;18.860;2023-04-25T07:47:09;97199.77;;;11.06;62.72
62057;BME280;48016;50.284;18.860;2023-04-25T07:49:36;97203.23;;;11.16;62.76
62057;BME280;48016;50.284;18.860;2023-04-25T07:52:03;97196.66;;;11.30;62.54
62057;BME280;48016;50.284;18.860;2023-04-25T07:54:30;97198.60;;;11.41;62.15
62057;BME280;48016;50.284;18.860;2023-04-25T07:56:57;97200.19;;;11.60;61.95
62057;BME280;48016;50.284;18.860;2023-04-25T07:59:24;97200.19;;;11.83;61.90
62057;BME280;48016;50.284;18.860;2023-04-25T08:01:51;97189.10;;;12.09;61.65
62057;BME280;48016;50.284;18.860;2023-04-25T08:04:18;97193.33;;;12.29;60.93
62057;BME280;48016;50.284;18.860;2023-04-25T08:06:44;97192.52;;;12.46;60.75
62057;BME280;48016;50.284;18.860;2023-04-25T08:09:11;97195.69;;;12.56;59.91
62057;BME280;48016;50.284;18.860;2023-04-25T08:11:38;97190.48;;;12.64;59.63
62057;BME280;48016;50.284;18.860;2023-04-25T08:14:05;97192.75;;;12.74;59.47
62057;BME280;48016;50.284;18.860;2023-04-25T08:16:32;97193.23;;;12.78;59.08
62057;BME280;48016;50.284;18.860;2023-04-25T08:18:59;97194.66;;;12.77;58.68
62057;BME280;48016;50.284;18.860;2023-04-25T08:21:26;97192.45;;;12.79;57.98
62057;BME280;48016;50.284;18.860;2023-04-25T08:23:53;97197.23;;;12.88;58.40
62057;BME280;48016;50.284;18.860;2023-04-25T08:26:20;97195.72;;;12.85;58.15
62057;BME280;48016;50.284;18.860;2023-04-25T08:28:47;97192.23;;;12.82;57.91
62057;BME280;48016;50.284;18.860;2023-04-25T08:31:13;97192.90;;;12.82;57.72
62057;BME280;48016;50.284;18.860;2023-04-25T08:33:40;97191.39;;;12.81;57.24
62057;BME280;48016;50.284;18.860;2023-04-25T08:36:07;97193.30;;;12.83;56.60
62057;BME280;48016;50.284;18.860;2023-04-25T08:38:33;97195.31;;;12.93;56.51
62057;BME280;48016;50.284;18.860;2023-04-25T08:41:00;97192.85;;;13.14;56.80
62057;BME280;48016;50.284;18.860;2023-04-25T08:43:30;97195.09;;;13.36;55.83
62057;BME280;48016;50.284;18.860;2023-04-25T08:46:00;97198.45;;;13.53;55.36
62057;BME280;48016;50.284;18.860;2023-04-25T08:48:28;97196.60;;;13.76;55.30
62057;BME280;48016;50.284;18.860;2023-04-25T08:50:56;97195.63;;;13.92;55.01
62057;BME280;48016;50.284;18.860;2023-04-25T08:53:30;97197.44;;;13.94;54.59
62057;BME280;48016;50.284;18.860;2023-04-25T08:55:59;97198.67;;;13.89;54.06
62057;BME280;48016;50.284;18.860;2023-04-25T08:58:27;97196.29;;;13.86;53.24
62057;BME280;48016;50.284;18.860;2023-04-25T09:00:54;97193.84;;;13.86;53.36
62057;BME280;48016;50.284;18.860;2023-04-25T09:03:21;97196.10;;;13.82;53.34
62057;BME280;48016;50.284;18.860;2023-04-25T09:05:48;97193.14;;;13.81;53.12
62057;BME280;48016;50.284;18.860;2023-04-25T09:08:16;97196.89;;;13.88;53.30
62057;BME280;48016;50.284;18.860;2023-04-25T09:10:43;97193.37;;;13.93;53.18
62057;BME280;48016;50.284;18.860;2023-04-25T09:13:14;97192.91;;;13.89;52.74
62057;BME280;48016;50.284;18.860;2023-04-25T09:15:59;97193.43;;;13.83;52.60
62057;BME280;48016;50.284;18.860;2023-04-25T09:21:07;97191.51;;;13.83;51.95
62057;BME280;48016;50.284;18.860;2023-04-25T09:23:46;97194.21;;;13.85;51.77
62057;BME280;48016;50.284;18.860;2023-04-25T09:26:15;97193.80;;;13.88;51.56
62057;BME280;48016;50.284;18.860;2023-04-25T09:28:43;97197.33;;;13.92;50.86
62057;BME280;48016;50.284;18.860;2023-04-25T09:31:10;97197.88;;;13.96;51.43
62057;BME280;48016;50.284;18.860;2023-04-25T09:33:40;97198.48;;;13.98;51.25
62057;BME280;48016;50.284;18.860;2023-04-25T09:36:10;97196.31;;;13.82;50.47
62057;BME280;48016;50.284;18.860;2023-04-25T09:38:42;97197.78;;;13.68;50.87
62057;BME280;48016;50.284;18.860;2023-04-25T09:41:10;97199.17;;;13.78;50.65
62057;BME280;48016;50.284;18.860;2023-04-25T09:43:38;97197.40;;;13.85;50.02
62057;BME280;48016;50.284;18.860;2023-04-25T09:46:09;97198.36;;;13.91;49.74
62057;BME280;48016;50.284;18.860;2023-04-25T09:48:37;97202.03;;;13.90;48.36
62057;BME280;48016;50.284;18.860;2023-04-25T09:53:36;97195.26;;;14.10;48.38
62057;BME280;48016;50.284;18.860;2023-04-25T09:56:05;97194.88;;;14.18;47.95
62057;BME280;48016;50.284;18.860;2023-04-25T09:58:34;97203.48;;;14.29;47.77
62057;BME280;48016;50.284;18.860;2023-04-25T10:01:06;97201.88;;;14.25;47.54
62057;BME280;48016;50.284;18.860;2023-04-25T10:03:35;97196.40;;;14.23;47.16
62057;BME280;48016;50.284;18.860;2023-04-25T10:06:07;97196.92;;;14.26;47.62
62057;BME280;48016;50.284;18.860;2023-04-25T10:08:36;97196.96;;;14.33;47.74
62057;BME280;48016;50.284;18.860;2023-04-25T10:11:05;97200.24;;;14.38;47.71
62057;BME280;48016;50.284;18.860;2023-04-25T10:13:32;97192.44;;;14.32;46.92
62057;BME280;48016;50.284;18.860;2023-04-25T10:16:01;97193.93;;;14.29;47.05
62057;BME280;48016;50.284;18.860;2023-04-25T10:18:30;97195.48;;;14.29;47.12
62057;BME280;48016;50.284;18.860;2023-04-25T10:21:00;97195.88;;;14.34;47.07
62057;BME280;48016;50.284;18.860;2023-04-25T10:23:29;97194.34;;;14.34;47.08
62057;BME280;48016;50.284;18.860;2023-04-25T10:25:56;97195.48;;;14.25;47.01
62057;BME280;48016;50.284;18.860;2023-04-25T10:28:24;97194.64;;;14.11;47.19
62057;BME280;48016;50.284;18.860;2023-04-25T10:31:01;97189.88;;;14.07;47.14
62057;BME280;48016;50.284;18.860;2023-04-25T10:33:32;97188.36;;;14.10;47.31
62057;BME280;48016;50.284;18.860;2023-04-25T10:36:23;97186.68;;;14.17;47.22
62057;BME280;48016;50.284;18.860;2023-04-25T10:38:50;97189.90;;;14.23;46.88
62057;BME280;48016;50.284;18.860;2023-04-25T10:41:19;97188.76;;;14.31;46.79
62057;BME280;48016;50.284;18.860;2023-04-25T10:43:47;97190.20;;;14.32;46.54
62057;BME280;48016;50.284;18.860;2023-04-25T10:51:29;97188.07;;;14.33;45.82
62057;BME280;48016;50.284;18.860;2023-04-25T10:54:02;97184.54;;;14.25;46.08
62057;BME280;48016;50.284;18.860;2023-04-25T10:56:37;97188.41;;;14.18;45.83
62057;BME280;48016;50.284;18.860;2023-04-25T10:59:13;97189.80;;;14.09;45.73
62057;BME280;48016;50.284;18.860;2023-04-25T11:01:42;97193.55;;;14.01;44.91
62057;BME280;48016;50.284;18.860;2023-04-25T11:04:23;97191.38;;;13.89;45.13
62057;BME280;48016;50.284;18.860;2023-04-25T11:09:34;97187.11;;;13.96;45.53
62057;BME280;48016;50.284;18.860;2023-04-25T11:12:01;97182.69;;;14.05;45.85
62057;BME280;48016;50.284;18.860;2023-04-25T11:14:28;97184.92;;;14.08;45.40
62057;BME280;48016;50.284;18.860;2023-04-25T11:16:58;97186.37;;;14.11;45.46
62057;BME280;48016;50.284;18.860;2023-04-25T11:19:26;97185.05;;;14.12;45.29
62057;BME280;48016;50.284;18.860;2023-04-25T11:21:56;97192.59;;;14.02;45.37
62057;BME280;48016;50.284;18.860;2023-04-25T11:24:31;97191.88;;;13.87;44.91
62057;BME280;48016;50.284;18.860;2023-04-25T11:26:59;97195.99;;;13.82;45.29
62057;BME280;48016;50.284;18.860;2023-04-25T11:29:30;97194.27;;;13.74;45.19
62057;BME280;48016;50.284;18.860;2023-04-25T11:31:57;97194.77;;;13.67;45.25
62057;BME280;48016;50.284;18.860;2023-04-25T11:34:31;97198.00;;;13.60;45.46
62057;BME280;48016;50.284;18.860;2023-04-25T11:37:00;97200.55;;;13.55;45.45
62057;BME280;48016;50.284;18.860;2023-04-25T11:39:28;97198.54;;;13.51;45.32
62057;BME280;48016;50.284;18.860;2023-04-25T11:41:55;97198.52;;;13.49;45.45
62057;BME280;48016;50.284;18.860;2023-04-25T11:44:22;97196.29;;;13.47;45.47
62057;BME280;48016;50.284;18.860;2023-04-25T11:46:49;97198.84;;;13.41;45.74
62057;BME280;48016;50.284;18.860;2023-04-25T11:49:16;97203.34;;;13.33;45.74
62057;BME280;48016;50.284;18.860;2023-04-25T11:51:46;97199.48;;;13.27;45.94
62057;BME280;48016;50.284;18.860;2023-04-25T11:54:14;97200.33;;;13.31;46.22
62057;BME280;48016;50.284;18.860;2023-04-25T11:56:45;97198.73;;;13.36;46.06
62057;BME280;48016;50.284;18.860;2023-04-25T11:59:13;97196.22;;;13.37;46.09
62057;BME280;48016;50.284;18.860;2023-04-25T12:01:46;97198.75;;;13.38;46.13
62057;BME280;48016;50.284;18.860;2023-04-25T12:04:24;97200.23;;;13.42;46.42
62057;BME280;48016;50.284;18.860;2023-04-25T12:06:52;97197.00;;;13.47;45.89
62057;BME280;48016;50.284;18.860;2023-04-25T12:09:21;97194.47;;;13.40;45.88
62057;BME280;48016;50.284;18.860;2023-04-25T12:11:55;97192.08;;;13.24;46.03
62057;BME280;48016;50.284;18.860;2023-04-25T12:14:27;97192.80;;;13.17;45.97
62057;BME280;48016;50.284;18.860;2023-04-25T12:16:56;97193.45;;;13.11;46.01
62057;BME280;48016;50.284;18.860;2023-04-25T12:19:32;97192.50;;;13.02;46.26
62057;BME280;48016;50.284;18.860;2023-04-25T12:22:01;97194.53;;;13.01;46.34
62057;BME280;48016;50.284;18.860;2023-04-25T12:24:29;97195.63;;;12.91;46.08
62057;BME280;48016;50.284;18.860;2023-04-25T12:27:04;97195.83;;;12.79;46.16
62057;BME280;48016;50.284;18.860;2023-04-25T12:29:33;97194.77;;;12.74;46.25
62057;BME280;48016;50.284;18.860;2023-04-25T12:32:00;97194.02;;;12.72;46.35
62057;BME280;48016;50.284;18.860;2023-04-25T12:34:32;97194.41;;;12.76;46.37
62057;BME280;48016;50.284;18.860;2023-04-25T12:36:58;97193.41;;;12.80;46.39
62057;BME280;48016;50.284;18.860;2023-04-25T12:39:25;97195.80;;;12.81;46.00
62057;BME280;48016;50.284;18.860;2023-04-25T12:41:52;97194.73;;;12.82;45.99
62057;BME280;48016;50.284;18.860;2023-04-25T12:44:20;97192.80;;;12.94;46.39
62057;BME280;48016;50.284;18.860;2023-04-25T12:46:48;97200.08;;;13.10;46.19
62057;BME280;48016;50.284;18.860;2023-04-25T12:49:15;97199.41;;;13.20;46.19
62057;BME280;48016;50.284;18.860;2023-04-25T12:51:41;97199.68;;;13.28;46.27
62057;BME280;48016;50.284;18.860;2023-04-25T12:54:08;97199.93;;;13.32;46.06
62057;BME280;48016;50.284;18.860;2023-04-25T12:56:35;97191.10;;;13.28;45.79
62057;BME280;48016;50.284;18.860;2023-04-25T12:59:02;97186.70;;;13.26;45.76
62057;BME280;48016;50.284;18.860;2023-04-25T13:01:31;97184.33;;;13.23;45.64
62057;BME280;48016;50.284;18.860;2023-04-25T13:03:59;97184.85;;;13.25;45.83
62057;BME280;48016;50.284;18.860;2023-04-25T13:06:26;97183.36;;;13.27;45.69
62057;BME280;48016;50.284;18.860;2023-04-25T13:08:52;97180.93;;;13.30;45.43
62057;BME280;48016;50.284;18.860;2023-04-25T13:11:19;97179.70;;;13.24;45.29
62057;BME280;48016;50.284;18.860;2023-04-25T13:13:46;97184.24;;;13.24;45.76
62057;BME280;48016;50.284;18.860;2023-04-25T13:16:12;97182.30;;;13.25;45.92
62057;BME280;48016;50.284;18.860;2023-04-25T13:18:42;97182.77;;;13.24;46.06
62057;BME280;48016;50.284;18.860;2023-04-25T13:21:09;97182.01;;;13.22;45.91
62057;BME280;48016;50.284;18.860;2023-04-25T13:23:37;97175.97;;;13.17;45.87
62057;BME280;48016;50.284;18.860;2023-04-25T13:26:04;97170.08;;;13.13;45.77
62057;BME280;48016;50.284;18.860;2023-04-25T13:28:31;97171.11;;;13.09;46.04